sensor_id;sensor_type;location;lat;lon;timestamp;temperature;humidity
19755;DHT22;10036;47.812;9.274;2024-03-22T00:01:05;9.00;99.90
19755;DHT22;10036;47.812;9.274;2024-03-22T00:03:33;9.10;99.90
19755;DHT22;10036;47.812;9.274;2024-03-22T00:05:59;9.00;99.90
19755;DHT22;10036;47.812;9.274;2024-03-22T00:08:26;8.90;99.90
19755;DHT22;10036;47.812;9.274;2024-03-22T00:10:52;8.70;99.90
19755;DHT22;10036;47.812;9.274;2024-03-22T00:13:19;8.60;99.90
19755;DHT22;10036;47.812;9.274;2024-03-22T00:15:45;8.40;99.90
19755;DHT22;10036;47.812;9.274;2024-03-22T00:18:11;8.20;99.90
19755;DHT22;10036;47.812;9.274;2024-03-22T00:20:39;8.10;99.90
19755;DHT22;10036;47.812;9.274;2024-03-22T00:23:05;8.20;99.90
19755;DHT22;10036;47.812;9.274;2024-03-22T00:25:31;8.50;99.90
19755;DHT22;10036;47.812;9.274;2024-03-22T00:27:58;8.50;99.90
19755;DHT22;10036;47.812;9.274;2024-03-22T00:30:24;8.20;99.90
19755;DHT22;10036;47.812;9.274;2024-03-22T00:32:51;8.20;99.90
19755;DHT22;10036;47.812;9.274;2024-03-22T00:35:17;8.00;99.90
19755;DHT22;10036;47.812;9.274;2024-03-22T00:37:46;8.00;99.90
19755;DHT22;10036;47.812;9.274;2024-03-22T00:40:12;8.00;99.90
19755;DHT22;10036;47.812;9.274;2024-03-22T00:42:39;8.10;99.90
19755;DHT22;10036;47.812;9.274;2024-03-22T00:45:05;8.30;99.90
19755;DHT22;10036;47.812;9.274;2024-03-22T00:47:32;8.30;99.90
19755;DHT22;10036;47.812;9.274;2024-03-22T00:49:58;8.10;99.90
19755;DHT22;10036;47.812;9.274;2024-03-22T00:52:27;7.90;99.90
19755;DHT22;10036;47.812;9.274;2024-03-22T00:54:54;7.90;99.90
19755;DHT22;10036;47.812;9.274;2024-03-22T00:57:21;8.00;99.90
19755;DHT22;10036;47.812;9.274;2024-03-22T00:59:47;8.10;99.90
19755;DHT22;10036;47.812;9.274;2024-03-22T01:02:14;8.10;99.90
19755;DHT22;10036;47.812;9.274;2024-03-22T01:04:40;8.10;99.90
19755;DHT22;10036;47.812;9.274;2024-03-22T01:07:07;8.00;99.90
19755;DHT22;10036;47.812;9.274;2024-03-22T01:09:33;8.00;99.90
19755;DHT22;10036;47.812;9.274;2024-03-22T01:12:01;7.60;99.90
19755;DHT22;10036;47.812;9.274;2024-03-22T01:14:27;7.70;99.90
19755;DHT22;10036;47.812;9.274;2024-03-22T01:16:54;7.70;99.90
19755;DHT22;10036;47.812;9.274;2024-03-22T01:19:20;7.90;99.90
19755;DHT22;10036;47.812;9.274;2024-03-22T01:21:48;7.90;99.90
19755;DHT22;10036;47.812;9.274;2024-03-22T01:24:14;7.80;99.90
19755;DHT22;10036;47.812;9.274;2024-03-22T01:26:41;7.80;99.90
19755;DHT22;10036;47.812;9.274;2024-03-22T01:29:09;7.80;99.90
19755;DHT22;10036;47.812;9.274;2024-03-22T01:31:36;7.80;99.90
19755;DHT22;10036;47.812;9.274;2024-03-22T01:34:01;7.80;99.90
19755;DHT22;10036;47.812;9.274;2024-03-22T01:36:28;7.60;99.90
19755;DHT22;10036;47.812;9.274;2024-03-22T01:38:54;7.60;99.90
19755;DHT22;10036;47.812;9.274;2024-03-22T01:41:21;7.30;99.90
19755;DHT22;10036;47.812;9.274;2024-03-22T01:43:47;7.20;99.90
19755;DHT22;10036;47.812;9.274;2024-03-22T01:46:15;7.20;99.90
19755;DHT22;10036;47.812;9.274;2024-03-22T01:48:41;7.10;99.90
19755;DHT22;10036;47.812;9.274;2024-03-22T01:51:08;7.30;99.90
19755;DHT22;10036;47.812;9.274;2024-03-22T01:53:35;7.20;99.90
19755;DHT22;10036;47.812;9.274;2024-03-22T01:56:04;7.00;99.90
19755;DHT22;10036;47.812;9.274;2024-03-22T01:58:31;6.80;99.90
19755;DHT22;10036;47.812;9.274;2024-03-22T02:00:58;6.90;99.90
19755;DHT22;10036;47.812;9.274;2024-03-22T02:03:25;6.80;99.90
19755;DHT22;10036;47.812;9.274;2024-03-22T02:05:52;6.80;99.90
19755;DHT22;10036;47.812;9.274;2024-03-22T02:08:19;6.90;99.90
19755;DHT22;10036;47.812;9.274;2024-03-22T02:10:46;6.90;99.90
19755;DHT22;10036;47.812;9.274;2024-03-22T02:13:12;6.90;99.90
19755;DHT22;10036;47.812;9.274;2024-03-22T02:15:39;6.90;99.90
19755;DHT22;10036;47.812;9.274;2024-03-22T02:18:05;6.90;99.90
19755;DHT22;10036;47.812;9.274;2024-03-22T02:20:33;6.80;99.90
19755;DHT22;10036;47.812;9.274;2024-03-22T02:22:59;6.70;99.90
19755;DHT22;10036;47.812;9.274;2024-03-22T02:25:27;6.80;99.90
19755;DHT22;10036;47.812;9.274;2024-03-22T02:27:53;6.90;99.90
19755;DHT22;10036;47.812;9.274;2024-03-22T02:30:20;7.00;99.90
19755;DHT22;10036;47.812;9.274;2024-03-22T02:32:46;6.90;99.90
19755;DHT22;10036;47.812;9.274;2024-03-22T02:35:13;6.80;99.90
19755;DHT22;10036;47.812;9.274;2024-03-22T02:37:39;6.80;99.90
19755;DHT22;10036;47.812;9.274;2024-03-22T02:40:07;6.80;99.90
19755;DHT22;10036;47.812;9.274;2024-03-22T02:42:34;6.80;99.90
19755;DHT22;10036;47.812;9.274;2024-03-22T02:45:01;6.90;99.90
19755;DHT22;10036;47.812;9.274;2024-03-22T02:47:27;6.70;99.90
19755;DHT22;10036;47.812;9.274;2024-03-22T02:49:54;6.90;99.90
19755;DHT22;10036;47.812;9.274;2024-03-22T02:52:19;6.90;99.90
19755;DHT22;10036;47.812;9.274;2024-03-22T02:54:46;6.90;99.90
19755;DHT22;10036;47.812;9.274;2024-03-22T02:57:12;6.90;99.90
19755;DHT22;10036;47.812;9.274;2024-03-22T02:59:40;6.80;99.90
19755;DHT22;10036;47.812;9.274;2024-03-22T03:02:06;6.60;99.90
19755;DHT22;10036;47.812;9.274;2024-03-22T03:04:33;6.80;99.90
19755;DHT22;10036;47.812;9.274;2024-03-22T03:07:00;6.70;99.90
19755;DHT22;10036;47.812;9.274;2024-03-22T03:09:26;6.60;99.90
19755;DHT22;10036;47.812;9.274;2024-03-22T03:11:52;6.40;99.90
19755;DHT22;10036;47.812;9.274;2024-03-22T03:14:19;6.50;99.90
19755;DHT22;10036;47.812;9.274;2024-03-22T03:16:46;6.60;99.90
19755;DHT22;10036;47.812;9.274;2024-03-22T03:19:13;6.70;99.90
19755;DHT22;10036;47.812;9.274;2024-03-22T03:21:39;6.90;99.90
19755;DHT22;10036;47.812;9.274;2024-03-22T03:24:06;7.00;99.90
19755;DHT22;10036;47.812;9.274;2024-03-22T03:26:32;6.90;99.90
19755;DHT22;10036;47.812;9.274;2024-03-22T03:28:59;6.80;99.90
19755;DHT22;10036;47.812;9.274;2024-03-22T03:31:24;6.70;99.90
19755;DHT22;10036;47.812;9.274;2024-03-22T03:33:53;6.60;99.90
19755;DHT22;10036;47.812;9.274;2024-03-22T03:36:18;6.70;99.90
19755;DHT22;10036;47.812;9.274;2024-03-22T03:38:45;6.90;99.90
19755;DHT22;10036;47.812;9.274;2024-03-22T03:41:11;6.80;99.90
19755;DHT22;10036;47.812;9.274;2024-03-22T03:43:38;6.90;99.90
19755;DHT22;10036;47.812;9.274;2024-03-22T03:46:04;6.80;99.90
19755;DHT22;10036;47.812;9.274;2024-03-22T03:48:31;6.80;99.90
19755;DHT22;10036;47.812;9.274;2024-03-22T03:50:59;6.80;99.90
19755;DHT22;10036;47.812;9.274;2024-03-22T03:53:28;6.90;99.90
19755;DHT22;10036;47.812;9.274;2024-03-22T03:55:54;6.80;99.90
19755;DHT22;10036;47.812;9.274;2024-03-22T03:58:21;6.70;99.90
19755;DHT22;10036;47.812;9.274;2024-03-22T04:00:47;6.50;99.90
19755;DHT22;10036;47.812;9.274;2024-03-22T04:03:14;6.40;99.90
19755;DHT22;10036;47.812;9.274;2024-03-22T04:05:40;6.20;99.90
19755;DHT22;10036;47.812;9.274;2024-03-22T04:08:08;6.40;99.90
19755;DHT22;10036;47.812;9.274;2024-03-22T04:10:34;6.40;99.90
19755;DHT22;10036;47.812;9.274;2024-03-22T04:13:01;6.30;99.90
19755;DHT22;10036;47.812;9.274;2024-03-22T04:15:27;6.40;99.90
19755;DHT22;10036;47.812;9.274;2024-03-22T04:17:56;6.50;99.90
19755;DHT22;10036;47.812;9.274;2024-03-22T04:20:22;6.60;99.90
19755;DHT22;10036;47.812;9.274;2024-03-22T04:22:49;6.60;99.90
19755;DHT22;10036;47.812;9.274;2024-03-22T04:25:19;6.60;99.90
19755;DHT22;10036;47.812;9.274;2024-03-22T04:27:45;6.50;99.90
19755;DHT22;10036;47.812;9.274;2024-03-22T04:30:12;6.50;99.90
19755;DHT22;10036;47.812;9.274;2024-03-22T04:32:39;6.40;99.90
19755;DHT22;10036;47.812;9.274;2024-03-22T04:35:05;6.40;99.90
19755;DHT22;10036;47.812;9.274;2024-03-22T04:37:32;6.30;99.90
19755;DHT22;10036;47.812;9.274;2024-03-22T04:39:59;6.30;99.90
19755;DHT22;10036;47.812;9.274;2024-03-22T04:42:27;6.40;99.90
19755;DHT22;10036;47.812;9.274;2024-03-22T04:44:54;6.40;99.90
19755;DHT22;10036;47.812;9.274;2024-03-22T04:47:21;6.30;99.90
19755;DHT22;10036;47.812;9.274;2024-03-22T04:49:47;6.40;99.90
19755;DHT22;10036;47.812;9.274;2024-03-22T04:52:14;6.50;99.90
19755;DHT22;10036;47.812;9.274;2024-03-22T04:54:40;6.60;99.90
19755;DHT22;10036;47.812;9.274;2024-03-22T04:57:07;6.50;99.90
19755;DHT22;10036;47.812;9.274;2024-03-22T04:59:34;6.60;99.90
19755;DHT22;10036;47.812;9.274;2024-03-22T05:02:01;6.60;99.90
19755;DHT22;10036;47.812;9.274;2024-03-22T05:04:27;6.60;99.90
19755;DHT22;10036;47.812;9.274;2024-03-22T05:06:53;6.60;99.90
19755;DHT22;10036;47.812;9.274;2024-03-22T05:09:20;6.60;99.90
19755;DHT22;10036;47.812;9.274;2024-03-22T05:11:46;6.50;99.90
19755;DHT22;10036;47.812;9.274;2024-03-22T05:14:16;6.50;99.90
19755;DHT22;10036;47.812;9.274;2024-03-22T05:16:43;6.50;99.90
19755;DHT22;10036;47.812;9.274;2024-03-22T05:19:10;6.50;99.90
19755;DHT22;10036;47.812;9.274;2024-03-22T05:21:36;6.50;99.90
19755;DHT22;10036;47.812;9.274;2024-03-22T05:24:03;6.60;99.90
19755;DHT22;10036;47.812;9.274;2024-03-22T05:26:28;6.50;99.90
19755;DHT22;10036;47.812;9.274;2024-03-22T05:28:57;6.50;99.90
19755;DHT22;10036;47.812;9.274;2024-03-22T05:31:23;6.50;99.90
19755;DHT22;10036;47.812;9.274;2024-03-22T05:33:51;6.60;99.90
19755;DHT22;10036;47.812;9.274;2024-03-22T05:36:17;6.40;99.90
19755;DHT22;10036;47.812;9.274;2024-03-22T05:38:44;6.40;99.90
19755;DHT22;10036;47.812;9.274;2024-03-22T05:41:10;6.40;99.90
19755;DHT22;10036;47.812;9.274;2024-03-22T05:43:37;6.50;99.90
19755;DHT22;10036;47.812;9.274;2024-03-22T05:46:03;6.40;99.90
19755;DHT22;10036;47.812;9.274;2024-03-22T05:48:30;6.60;99.90
19755;DHT22;10036;47.812;9.274;2024-03-22T05:50:57;6.70;99.90
19755;DHT22;10036;47.812;9.274;2024-03-22T05:53:24;6.70;99.90
19755;DHT22;10036;47.812;9.274;2024-03-22T05:55:50;6.70;99.90
19755;DHT22;10036;47.812;9.274;2024-03-22T05:58:16;6.80;99.90
19755;DHT22;10036;47.812;9.274;2024-03-22T06:00:43;6.80;99.90
19755;DHT22;10036;47.812;9.274;2024-03-22T06:03:10;6.90;99.90
19755;DHT22;10036;47.812;9.274;2024-03-22T06:05:36;6.80;99.90
19755;DHT22;10036;47.812;9.274;2024-03-22T06:08:06;6.90;99.90
19755;DHT22;10036;47.812;9.274;2024-03-22T06:10:32;7.00;99.90
19755;DHT22;10036;47.812;9.274;2024-03-22T06:12:59;7.10;99.90
19755;DHT22;10036;47.812;9.274;2024-03-22T06:15:25;7.10;99.90
19755;DHT22;10036;47.812;9.274;2024-03-22T06:17:51;7.20;99.90
19755;DHT22;10036;47.812;9.274;2024-03-22T06:20:18;7.20;99.90
19755;DHT22;10036;47.812;9.274;2024-03-22T06:22:45;7.20;99.90
19755;DHT22;10036;47.812;9.274;2024-03-22T06:25:13;7.40;99.90
19755;DHT22;10036;47.812;9.274;2024-03-22T06:27:39;7.40;99.90
19755;DHT22;10036;47.812;9.274;2024-03-22T06:30:07;7.60;99.90
19755;DHT22;10036;47.812;9.274;2024-03-22T06:32:33;7.40;99.90
19755;DHT22;10036;47.812;9.274;2024-03-22T06:35:00;7.50;99.90
19755;DHT22;10036;47.812;9.274;2024-03-22T06:37:26;7.50;99.90
19755;DHT22;10036;47.812;9.274;2024-03-22T06:39:52;7.40;99.90
19755;DHT22;10036;47.812;9.274;2024-03-22T06:42:20;7.60;99.90
19755;DHT22;10036;47.812;9.274;2024-03-22T06:44:46;7.60;99.90
19755;DHT22;10036;47.812;9.274;2024-03-22T06:47:12;7.70;99.90
19755;DHT22;10036;47.812;9.274;2024-03-22T06:49:39;7.80;99.90
19755;DHT22;10036;47.812;9.274;2024-03-22T06:52:05;8.00;99.90
19755;DHT22;10036;47.812;9.274;2024-03-22T06:54:32;8.10;99.90
19755;DHT22;10036;47.812;9.274;2024-03-22T06:56:58;8.10;99.90
19755;DHT22;10036;47.812;9.274;2024-03-22T06:59:26;8.40;99.90
19755;DHT22;10036;47.812;9.274;2024-03-22T07:01:52;8.40;99.90
19755;DHT22;10036;47.812;9.274;2024-03-22T07:04:19;8.50;99.90
19755;DHT22;10036;47.812;9.274;2024-03-22T07:06:45;8.60;99.90
19755;DHT22;10036;47.812;9.274;2024-03-22T07:09:11;8.80;99.90
19755;DHT22;10036;47.812;9.274;2024-03-22T07:11:37;8.90;99.90
19755;DHT22;10036;47.812;9.274;2024-03-22T07:14:04;9.00;99.90
19755;DHT22;10036;47.812;9.274;2024-03-22T07:16:31;9.10;99.90
19755;DHT22;10036;47.812;9.274;2024-03-22T07:18:58;9.20;99.90
19755;DHT22;10036;47.812;9.274;2024-03-22T07:21:24;9.30;99.90
19755;DHT22;10036;47.812;9.274;2024-03-22T07:23:51;9.20;99.90
19755;DHT22;10036;47.812;9.274;2024-03-22T07:26:17;9.30;99.90
19755;DHT22;10036;47.812;9.274;2024-03-22T07:28:44;9.40;99.90
19755;DHT22;10036;47.812;9.274;2024-03-22T07:31:09;9.40;99.90
19755;DHT22;10036;47.812;9.274;2024-03-22T07:33:39;9.40;99.90
19755;DHT22;10036;47.812;9.274;2024-03-22T07:36:05;9.40;99.90
19755;DHT22;10036;47.812;9.274;2024-03-22T07:38:32;9.30;99.90
19755;DHT22;10036;47.812;9.274;2024-03-22T07:40:58;9.40;99.90
19755;DHT22;10036;47.812;9.274;2024-03-22T07:43:25;9.40;99.90
19755;DHT22;10036;47.812;9.274;2024-03-22T07:45:51;9.50;99.90
19755;DHT22;10036;47.812;9.274;2024-03-22T07:48:18;9.50;99.90
19755;DHT22;10036;47.812;9.274;2024-03-22T07:50:45;9.50;99.90
19755;DHT22;10036;47.812;9.274;2024-03-22T07:53:12;9.60;99.90
19755;DHT22;10036;47.812;9.274;2024-03-22T07:55:39;9.60;99.90
19755;DHT22;10036;47.812;9.274;2024-03-22T07:58:06;9.60;99.90
19755;DHT22;10036;47.812;9.274;2024-03-22T08:00:32;9.70;99.90
19755;DHT22;10036;47.812;9.274;2024-03-22T08:02:59;9.70;99.90
19755;DHT22;10036;47.812;9.274;2024-03-22T08:05:24;9.80;99.90
19755;DHT22;10036;47.812;9.274;2024-03-22T08:07:53;9.90;99.90
19755;DHT22;10036;47.812;9.274;2024-03-22T08:10:19;10.00;99.90
19755;DHT22;10036;47.812;9.274;2024-03-22T08:12:45;10.00;99.90
19755;DHT22;10036;47.812;9.274;2024-03-22T08:15:11;10.00;99.90
19755;DHT22;10036;47.812;9.274;2024-03-22T08:17:38;10.10;99.90
19755;DHT22;10036;47.812;9.274;2024-03-22T08:20:05;10.20;99.90
19755;DHT22;10036;47.812;9.274;2024-03-22T08:22:32;10.20;99.90
19755;DHT22;10036;47.812;9.274;2024-03-22T08:25:00;10.30;99.90
19755;DHT22;10036;47.812;9.274;2024-03-22T08:27:27;10.30;99.90
19755;DHT22;10036;47.812;9.274;2024-03-22T08:29:53;10.40;99.90
19755;DHT22;10036;47.812;9.274;2024-03-22T08:32:20;10.50;99.90
19755;DHT22;10036;47.812;9.274;2024-03-22T08:34:46;10.60;99.90
19755;DHT22;10036;47.812;9.274;2024-03-22T08:37:13;10.60;99.90
19755;DHT22;10036;47.812;9.274;2024-03-22T08:39:39;10.70;99.90
19755;DHT22;10036;47.812;9.274;2024-03-22T08:42:08;10.80;99.90
19755;DHT22;10036;47.812;9.274;2024-03-22T08:44:34;10.90;99.90
19755;DHT22;10036;47.812;9.274;2024-03-22T08:47:01;11.00;99.90
19755;DHT22;10036;47.812;9.274;2024-03-22T08:49:27;11.00;99.90
19755;DHT22;10036;47.812;9.274;2024-03-22T08:51:55;11.10;99.90
19755;DHT22;10036;47.812;9.274;2024-03-22T08:54:21;11.10;99.90
19755;DHT22;10036;47.812;9.274;2024-03-22T08:56:48;11.20;99.90
19755;DHT22;10036;47.812;9.274;2024-03-22T08:59:16;11.30;99.90
19755;DHT22;10036;47.812;9.274;2024-03-22T09:01:42;11.40;99.90
19755;DHT22;10036;47.812;9.274;2024-03-22T09:04:08;11.50;99.90
19755;DHT22;10036;47.812;9.274;2024-03-22T09:06:35;11.60;99.90
19755;DHT22;10036;47.812;9.274;2024-03-22T09:09:01;11.70;99.90
19755;DHT22;10036;47.812;9.274;2024-03-22T09:11:30;11.80;99.90
19755;DHT22;10036;47.812;9.274;2024-03-22T09:13:56;11.90;99.90
19755;DHT22;10036;47.812;9.274;2024-03-22T09:16:24;12.00;99.90
19755;DHT22;10036;47.812;9.274;2024-03-22T09:18:50;12.00;99.90
19755;DHT22;10036;47.812;9.274;2024-03-22T09:21:17;12.10;99.90
19755;DHT22;10036;47.812;9.274;2024-03-22T09:23:43;12.20;99.90
19755;DHT22;10036;47.812;9.274;2024-03-22T09:26:10;12.30;99.90
19755;DHT22;10036;47.812;9.274;2024-03-22T09:28:36;12.40;99.90
19755;DHT22;10036;47.812;9.274;2024-03-22T09:31:06;12.40;99.90
19755;DHT22;10036;47.812;9.274;2024-03-22T09:33:34;12.40;99.90
19755;DHT22;10036;47.812;9.274;2024-03-22T09:36:01;12.40;99.90
19755;DHT22;10036;47.812;9.274;2024-03-22T09:38:27;12.50;99.90
19755;DHT22;10036;47.812;9.274;2024-03-22T09:40:53;12.60;99.90
19755;DHT22;10036;47.812;9.274;2024-03-22T09:43:20;12.60;99.90
19755;DHT22;10036;47.812;9.274;2024-03-22T09:45:48;12.90;99.90
19755;DHT22;10036;47.812;9.274;2024-03-22T09:48:15;13.00;99.90
19755;DHT22;10036;47.812;9.274;2024-03-22T09:50:46;13.20;99.90
19755;DHT22;10036;47.812;9.274;2024-03-22T09:53:13;13.30;99.90
19755;DHT22;10036;47.812;9.274;2024-03-22T09:55:40;13.40;99.90
19755;DHT22;10036;47.812;9.274;2024-03-22T09:58:09;13.50;99.90
19755;DHT22;10036;47.812;9.274;2024-03-22T10:00:36;13.50;99.90
19755;DHT22;10036;47.812;9.274;2024-03-22T10:03:03;13.60;99.90
19755;DHT22;10036;47.812;9.274;2024-03-22T10:05:30;13.80;99.90
19755;DHT22;10036;47.812;9.274;2024-03-22T10:07:57;13.70;99.90
19755;DHT22;10036;47.812;9.274;2024-03-22T10:10:25;14.00;99.90
19755;DHT22;10036;47.812;9.274;2024-03-22T10:12:51;14.10;99.90
19755;DHT22;10036;47.812;9.274;2024-03-22T10:15:19;14.10;99.90
19755;DHT22;10036;47.812;9.274;2024-03-22T10:17:45;14.20;99.90
19755;DHT22;10036;47.812;9.274;2024-03-22T10:20:13;14.20;99.90
19755;DHT22;10036;47.812;9.274;2024-03-22T10:22:42;14.30;99.90
19755;DHT22;10036;47.812;9.274;2024-03-22T10:25:10;14.40;99.90
19755;DHT22;10036;47.812;9.274;2024-03-22T10:27:38;14.30;99.90
19755;DHT22;10036;47.812;9.274;2024-03-22T10:30:08;14.40;99.90
19755;DHT22;10036;47.812;9.274;2024-03-22T10:32:35;14.40;99.90
19755;DHT22;10036;47.812;9.274;2024-03-22T10:35:02;14.60;99.90
19755;DHT22;10036;47.812;9.274;2024-03-22T10:37:32;14.50;99.90
19755;DHT22;10036;47.812;9.274;2024-03-22T10:40:01;14.80;99.90
19755;DHT22;10036;47.812;9.274;2024-03-22T10:42:29;15.00;99.90
19755;DHT22;10036;47.812;9.274;2024-03-22T10:44:56;15.00;99.90
19755;DHT22;10036;47.812;9.274;2024-03-22T10:47:24;14.90;99.90
19755;DHT22;10036;47.812;9.274;2024-03-22T10:49:57;14.80;99.90
19755;DHT22;10036;47.812;9.274;2024-03-22T10:52:26;15.00;99.90
19755;DHT22;10036;47.812;9.274;2024-03-22T10:54:54;15.00;99.90
19755;DHT22;10036;47.812;9.274;2024-03-22T10:57:20;14.80;99.90
19755;DHT22;10036;47.812;9.274;2024-03-22T10:59:49;14.80;99.90
19755;DHT22;10036;47.812;9.274;2024-03-22T11:02:19;14.90;99.90
19755;DHT22;10036;47.812;9.274;2024-03-22T11:04:56;14.90;99.90
19755;DHT22;10036;47.812;9.274;2024-03-22T11:07:21;15.00;99.90
19755;DHT22;10036;47.812;9.274;2024-03-22T11:09:52;15.10;99.90
19755;DHT22;10036;47.812;9.274;2024-03-22T11:12:18;15.20;99.90
19755;DHT22;10036;47.812;9.274;2024-03-22T11:14:48;15.30;99.90
19755;DHT22;10036;47.812;9.274;2024-03-22T11:17:15;15.30;99.90
19755;DHT22;10036;47.812;9.274;2024-03-22T11:19:42;15.40;99.90
19755;DHT22;10036;47.812;9.274;2024-03-22T11:22:08;15.50;99.90
19755;DHT22;10036;47.812;9.274;2024-03-22T11:24:37;15.50;99.90
19755;DHT22;10036;47.812;9.274;2024-03-22T11:27:03;15.80;99.90
19755;DHT22;10036;47.812;9.274;2024-03-22T11:29:30;15.80;99.90
19755;DHT22;10036;47.812;9.274;2024-03-22T11:31:57;15.80;99.90
19755;DHT22;10036;47.812;9.274;2024-03-22T11:34:24;15.80;99.90
19755;DHT22;10036;47.812;9.274;2024-03-22T11:36:50;15.90;99.90
19755;DHT22;10036;47.812;9.274;2024-03-22T11:39:17;15.90;99.90
19755;DHT22;10036;47.812;9.274;2024-03-22T11:41:44;16.00;99.90
19755;DHT22;10036;47.812;9.274;2024-03-22T11:44:14;15.90;99.90
19755;DHT22;10036;47.812;9.274;2024-03-22T11:46:41;16.00;99.90
19755;DHT22;10036;47.812;9.274;2024-03-22T11:49:09;16.00;99.90
19755;DHT22;10036;47.812;9.274;2024-03-22T11:51:36;16.00;99.90
19755;DHT22;10036;47.812;9.274;2024-03-22T11:54:03;16.20;99.90
19755;DHT22;10036;47.812;9.274;2024-03-22T11:56:31;16.50;99.90
19755;DHT22;10036;47.812;9.274;2024-03-22T11:58:58;16.60;99.90
19755;DHT22;10036;47.812;9.274;2024-03-22T12:01:26;16.60;99.90
19755;DHT22;10036;47.812;9.274;2024-03-22T12:03:52;16.50;99.90
19755;DHT22;10036;47.812;9.274;2024-03-22T12:06:22;16.70;99.90
19755;DHT22;10036;47.812;9.274;2024-03-22T12:08:48;16.70;99.90
19755;DHT22;10036;47.812;9.274;2024-03-22T12:11:15;16.70;99.90
19755;DHT22;10036;47.812;9.274;2024-03-22T12:13:41;16.70;99.90
19755;DHT22;10036;47.812;9.274;2024-03-22T12:16:07;16.50;99.90
19755;DHT22;10036;47.812;9.274;2024-03-22T12:18:34;16.40;99.90
19755;DHT22;10036;47.812;9.274;2024-03-22T12:21:01;16.50;99.90
19755;DHT22;10036;47.812;9.274;2024-03-22T12:23:28;16.60;99.90
19755;DHT22;10036;47.812;9.274;2024-03-22T12:25:55;16.60;99.90
19755;DHT22;10036;47.812;9.274;2024-03-22T12:28:21;16.60;99.90
19755;DHT22;10036;47.812;9.274;2024-03-22T12:30:49;16.60;99.90
19755;DHT22;10036;47.812;9.274;2024-03-22T12:33:15;16.80;99.90
19755;DHT22;10036;47.812;9.274;2024-03-22T12:35:42;16.80;99.90
19755;DHT22;10036;47.812;9.274;2024-03-22T12:38:08;16.90;99.90
19755;DHT22;10036;47.812;9.274;2024-03-22T12:40:40;16.90;99.90
19755;DHT22;10036;47.812;9.274;2024-03-22T12:43:08;16.80;99.90
19755;DHT22;10036;47.812;9.274;2024-03-22T12:45:36;16.80;99.90
19755;DHT22;10036;47.812;9.274;2024-03-22T12:48:01;17.10;99.90
19755;DHT22;10036;47.812;9.274;2024-03-22T12:50:29;17.00;99.90
19755;DHT22;10036;47.812;9.274;2024-03-22T12:52:56;17.10;99.90
19755;DHT22;10036;47.812;9.274;2024-03-22T12:55:23;16.90;99.90
19755;DHT22;10036;47.812;9.274;2024-03-22T12:57:50;17.10;99.90
19755;DHT22;10036;47.812;9.274;2024-03-22T13:00:17;17.30;99.90
19755;DHT22;10036;47.812;9.274;2024-03-22T13:02:44;17.20;99.90
19755;DHT22;10036;47.812;9.274;2024-03-22T13:05:11;17.40;99.90
19755;DHT22;10036;47.812;9.274;2024-03-22T13:07:37;17.30;99.90
19755;DHT22;10036;47.812;9.274;2024-03-22T13:10:04;17.40;99.90
19755;DHT22;10036;47.812;9.274;2024-03-22T13:12:31;17.60;99.90
19755;DHT22;10036;47.812;9.274;2024-03-22T13:15:01;17.60;99.90
19755;DHT22;10036;47.812;9.274;2024-03-22T13:17:27;17.60;99.90
19755;DHT22;10036;47.812;9.274;2024-03-22T13:19:54;17.60;99.90
19755;DHT22;10036;47.812;9.274;2024-03-22T13:22:20;17.70;99.90
19755;DHT22;10036;47.812;9.274;2024-03-22T13:24:47;17.80;99.90
19755;DHT22;10036;47.812;9.274;2024-03-22T13:27:14;17.70;99.90
19755;DHT22;10036;47.812;9.274;2024-03-22T13:29:41;17.60;99.90
19755;DHT22;10036;47.812;9.274;2024-03-22T13:32:08;17.60;99.90
19755;DHT22;10036;47.812;9.274;2024-03-22T13:34:36;17.70;99.90
19755;DHT22;10036;47.812;9.274;2024-03-22T13:37:02;17.80;99.90
19755;DHT22;10036;47.812;9.274;2024-03-22T13:39:29;18.00;99.90
19755;DHT22;10036;47.812;9.274;2024-03-22T13:41:55;18.20;99.90
19755;DHT22;10036;47.812;9.274;2024-03-22T13:44:22;18.00;99.90
19755;DHT22;10036;47.812;9.274;2024-03-22T13:46:50;18.30;99.90
19755;DHT22;10036;47.812;9.274;2024-03-22T13:49:19;18.30;99.90
19755;DHT22;10036;47.812;9.274;2024-03-22T13:51:47;18.40;99.90
19755;DHT22;10036;47.812;9.274;2024-03-22T13:54:14;18.60;99.90
19755;DHT22;10036;47.812;9.274;2024-03-22T13:56:40;18.40;99.90
19755;DHT22;10036;47.812;9.274;2024-03-22T13:59:08;18.10;99.90
19755;DHT22;10036;47.812;9.274;2024-03-22T14:01:34;18.00;99.90
19755;DHT22;10036;47.812;9.274;2024-03-22T14:04:01;18.20;99.90
19755;DHT22;10036;47.812;9.274;2024-03-22T14:06:30;18.10;99.90
19755;DHT22;10036;47.812;9.274;2024-03-22T14:08:57;18.00;99.90
19755;DHT22;10036;47.812;9.274;2024-03-22T14:11:26;18.10;99.90
19755;DHT22;10036;47.812;9.274;2024-03-22T14:13:53;18.10;99.90
19755;DHT22;10036;47.812;9.274;2024-03-22T14:16:19;18.30;99.90
19755;DHT22;10036;47.812;9.274;2024-03-22T14:18:46;18.60;99.90
19755;DHT22;10036;47.812;9.274;2024-03-22T14:21:13;18.60;99.90
19755;DHT22;10036;47.812;9.274;2024-03-22T14:23:45;18.70;99.90
19755;DHT22;10036;47.812;9.274;2024-03-22T14:26:12;18.90;99.90
19755;DHT22;10036;47.812;9.274;2024-03-22T14:28:39;18.90;99.90
19755;DHT22;10036;47.812;9.274;2024-03-22T14:31:05;19.10;99.90
19755;DHT22;10036;47.812;9.274;2024-03-22T14:33:33;19.10;99.90
19755;DHT22;10036;47.812;9.274;2024-03-22T14:35:59;19.00;99.90
19755;DHT22;10036;47.812;9.274;2024-03-22T14:38:26;19.00;99.90
19755;DHT22;10036;47.812;9.274;2024-03-22T14:40:54;19.10;99.90
19755;DHT22;10036;47.812;9.274;2024-03-22T14:43:21;19.10;99.90
19755;DHT22;10036;47.812;9.274;2024-03-22T14:45:47;18.80;99.90
19755;DHT22;10036;47.812;9.274;2024-03-22T14:48:14;18.80;99.90
19755;DHT22;10036;47.812;9.274;2024-03-22T14:50:40;18.80;99.90
19755;DHT22;10036;47.812;9.274;2024-03-22T14:53:07;18.80;99.90
19755;DHT22;10036;47.812;9.274;2024-03-22T14:55:33;19.00;99.90
19755;DHT22;10036;47.812;9.274;2024-03-22T14:58:04;19.30;99.90
19755;DHT22;10036;47.812;9.274;2024-03-22T15:00:30;19.10;99.90
19755;DHT22;10036;47.812;9.274;2024-03-22T15:02:57;19.00;99.90
19755;DHT22;10036;47.812;9.274;2024-03-22T15:05:23;19.10;99.90
19755;DHT22;10036;47.812;9.274;2024-03-22T15:07:50;19.00;99.90
19755;DHT22;10036;47.812;9.274;2024-03-22T15:10:16;18.90;99.90
19755;DHT22;10036;47.812;9.274;2024-03-22T15:12:42;19.00;99.90
19755;DHT22;10036;47.812;9.274;2024-03-22T15:15:10;18.90;99.90
19755;DHT22;10036;47.812;9.274;2024-03-22T15:17:37;19.10;99.90
19755;DHT22;10036;47.812;9.274;2024-03-22T15:20:03;19.20;99.90
19755;DHT22;10036;47.812;9.274;2024-03-22T15:22:30;19.20;99.90
19755;DHT22;10036;47.812;9.274;2024-03-22T15:24:56;19.00;99.90
19755;DHT22;10036;47.812;9.274;2024-03-22T15:27:23;19.10;99.90
19755;DHT22;10036;47.812;9.274;2024-03-22T15:29:50;18.90;99.90
19755;DHT22;10036;47.812;9.274;2024-03-22T15:32:18;18.80;99.90
19755;DHT22;10036;47.812;9.274;2024-03-22T15:34:45;18.80;99.90
19755;DHT22;10036;47.812;9.274;2024-03-22T15:37:12;18.60;99.90